N156RE YBSU-YSSY
Flight info
| Callsign | N156RE |
|---|---|
| Flight time | N/A |
| Altitude | 43000 |
| Route | MOOLO Q35 SANEG H91 IGDAM/N0454F410 H652 BOREE |
| Aircraft | FA50/M-SDFGHIM1RWXY/H |
Departure
| Time | N/A |
|---|---|
| Airport | Sunshine Coast Airport (YBSU) |
Arrival
| Time | 2026-05-07 06:08 |
|---|---|
| Airport | Sydney Kingsford Smith International Airport (YSSY) |
| Time | Latitude | Longitude | Altitude | Speed | Heading |
|---|---|---|---|---|---|
| 2026-05-07 05:15 | -29.64956 | 152.10588 | 43047 ft | 398 kts | 222° |
| 2026-05-07 05:15 | -29.67400 | 152.09111 | 43053 ft | 397 kts | 222° |
| 2026-05-07 05:16 | -29.72602 | 152.06657 | 43054 ft | 418 kts | 209° |
| 2026-05-07 05:16 | -29.78373 | 152.05348 | 43047 ft | 429 kts | 205° |
| 2026-05-07 05:17 | -29.84098 | 152.03836 | 43049 ft | 420 kts | 209° |
| 2026-05-07 05:17 | -29.89783 | 152.02201 | 43049 ft | 418 kts | 211° |
| 2026-05-07 05:18 | -29.95316 | 152.00253 | 43053 ft | 420 kts | 209° |
| 2026-05-07 05:18 | -30.01165 | 151.98936 | 43052 ft | 431 kts | 204° |
| 2026-05-07 05:19 | -30.06958 | 151.97475 | 43050 ft | 423 kts | 208° |
| 2026-05-07 05:19 | -30.12393 | 151.95379 | 43047 ft | 399 kts | 221° |
| 2026-05-07 05:20 | -30.17370 | 151.92520 | 43038 ft | 400 kts | 220° |
| 2026-05-07 05:20 | -30.22481 | 151.89836 | 43053 ft | 412 kts | 214° |
| 2026-05-07 05:21 | -30.30713 | 151.86648 | 43054 ft | 412 kts | 215° |
| 2026-05-07 05:22 | -30.36105 | 151.84318 | 43048 ft | 416 kts | 213° |
| 2026-05-07 05:22 | -30.41561 | 151.82108 | 43051 ft | 414 kts | 214° |
| 2026-05-07 05:23 | -30.46970 | 151.79817 | 43063 ft | 415 kts | 213° |
| 2026-05-07 05:23 | -30.52410 | 151.77571 | 43062 ft | 415 kts | 213° |
| 2026-05-07 05:24 | -30.57847 | 151.75289 | 43063 ft | 416 kts | 213° |
| 2026-05-07 05:24 | -30.63296 | 151.73019 | 43058 ft | 417 kts | 213° |
| 2026-05-07 05:25 | -30.68722 | 151.70744 | 43063 ft | 418 kts | 213° |
| 2026-05-07 05:25 | -30.74186 | 151.68458 | 43071 ft | 417 kts | 213° |
| 2026-05-07 05:26 | -30.79637 | 151.66170 | 43072 ft | 416 kts | 213° |
| 2026-05-07 05:26 | -30.85077 | 151.63885 | 43064 ft | 415 kts | 213° |
| 2026-05-07 05:27 | -30.90508 | 151.61600 | 43063 ft | 416 kts | 213° |
| 2026-05-07 05:27 | -30.95963 | 151.59303 | 43066 ft | 418 kts | 212° |
| 2026-05-07 05:28 | -31.01461 | 151.56984 | 42862 ft | 424 kts | 213° |
| 2026-05-07 05:28 | -31.04228 | 151.55819 | 42569 ft | 421 kts | 213° |
| 2026-05-07 05:28 | -31.06968 | 151.54673 | 42280 ft | 416 kts | 213° |
| 2026-05-07 05:28 | -31.09670 | 151.53530 | 41997 ft | 411 kts | 213° |
| 2026-05-07 05:29 | -31.12345 | 151.52394 | 41756 ft | 407 kts | 213° |
| 2026-05-07 05:29 | -31.14994 | 151.51272 | 41478 ft | 403 kts | 213° |
| 2026-05-07 05:29 | -31.17621 | 151.50163 | 41206 ft | 400 kts | 214° |
| 2026-05-07 05:29 | -31.20229 | 151.49060 | 40938 ft | 397 kts | 214° |
| 2026-05-07 05:30 | -31.22813 | 151.47963 | 40672 ft | 394 kts | 214° |
| 2026-05-07 05:30 | -31.25379 | 151.46876 | 40402 ft | 391 kts | 214° |
| 2026-05-07 05:30 | -31.27923 | 151.45795 | 40146 ft | 388 kts | 215° |
| 2026-05-07 05:30 | -31.30453 | 151.44720 | 39906 ft | 386 kts | 215° |
| 2026-05-07 05:31 | -31.32994 | 151.43637 | 39656 ft | 393 kts | 215° |
| 2026-05-07 05:31 | -31.35584 | 151.42527 | 39442 ft | 400 kts | 214° |
| 2026-05-07 05:31 | -31.38181 | 151.41429 | 39203 ft | 404 kts | 214° |
| 2026-05-07 05:31 | -31.40830 | 151.40289 | 38961 ft | 407 kts | 216° |
| 2026-05-07 05:32 | -31.43481 | 151.39090 | 38708 ft | 410 kts | 216° |
| 2026-05-07 05:32 | -31.46159 | 151.37867 | 38275 ft | 417 kts | 216° |
| 2026-05-07 05:32 | -31.48903 | 151.36642 | 37817 ft | 426 kts | 214° |
| 2026-05-07 05:32 | -31.51697 | 151.35415 | 37368 ft | 432 kts | 214° |
| 2026-05-07 05:33 | -31.54524 | 151.34154 | 36934 ft | 437 kts | 214° |
| 2026-05-07 05:33 | -31.57357 | 151.32870 | 36599 ft | 435 kts | 215° |
| 2026-05-07 05:33 | -31.60171 | 151.31622 | 36179 ft | 430 kts | 214° |
| 2026-05-07 05:33 | -31.62955 | 151.30392 | 35757 ft | 424 kts | 215° |
| 2026-05-07 05:34 | -31.65701 | 151.29152 | 35300 ft | 423 kts | 216° |
| 2026-05-07 05:34 | -31.68452 | 151.27903 | 34806 ft | 425 kts | 216° |
| 2026-05-07 05:34 | -31.71217 | 151.26664 | 34319 ft | 424 kts | 215° |
| 2026-05-07 05:34 | -31.73964 | 151.25464 | 33801 ft | 418 kts | 215° |
| 2026-05-07 05:35 | -31.76655 | 151.24244 | 33245 ft | 412 kts | 216° |
| 2026-05-07 05:35 | -31.79306 | 151.23014 | 32765 ft | 407 kts | 216° |
| 2026-05-07 05:35 | -31.81946 | 151.21836 | 32243 ft | 405 kts | 215° |
| 2026-05-07 05:35 | -31.84559 | 151.20692 | 31687 ft | 388 kts | 216° |
| 2026-05-07 05:36 | -31.86958 | 151.19614 | 31032 ft | 352 kts | 218° |
| 2026-05-07 05:36 | -31.89158 | 151.18621 | 30409 ft | 327 kts | 218° |
| 2026-05-07 05:36 | -31.91218 | 151.17698 | 29721 ft | 310 kts | 219° |
| 2026-05-07 05:36 | -31.93257 | 151.16744 | 29010 ft | 321 kts | 219° |
| 2026-05-07 05:37 | -31.95376 | 151.15761 | 28302 ft | 332 kts | 217° |
| 2026-05-07 05:37 | -31.97568 | 151.14798 | 27622 ft | 340 kts | 216° |
| 2026-05-07 05:37 | -31.99799 | 151.13821 | 27041 ft | 344 kts | 216° |
| 2026-05-07 05:37 | -32.02044 | 151.12811 | 26390 ft | 346 kts | 216° |
| 2026-05-07 05:38 | -32.04294 | 151.11795 | 25757 ft | 346 kts | 216° |
| 2026-05-07 05:38 | -32.06547 | 151.10785 | 25133 ft | 346 kts | 215° |
| 2026-05-07 05:38 | -32.08799 | 151.09781 | 24531 ft | 346 kts | 215° |
| 2026-05-07 05:38 | -32.11040 | 151.08773 | 23935 ft | 344 kts | 215° |
| 2026-05-07 05:39 | -32.13267 | 151.07769 | 23279 ft | 341 kts | 215° |
| 2026-05-07 05:39 | -32.15473 | 151.06778 | 22585 ft | 338 kts | 215° |
| 2026-05-07 05:39 | -32.17664 | 151.05797 | 21898 ft | 335 kts | 216° |
| 2026-05-07 05:39 | -32.19832 | 151.04818 | 21232 ft | 332 kts | 216° |
| 2026-05-07 05:40 | -32.21983 | 151.03844 | 20644 ft | 330 kts | 215° |
| 2026-05-07 05:40 | -32.24120 | 151.02880 | 20004 ft | 327 kts | 214° |
| 2026-05-07 05:40 | -32.26229 | 151.01946 | 19379 ft | 320 kts | 214° |
| 2026-05-07 05:40 | -32.28287 | 151.01018 | 18768 ft | 313 kts | 215° |
| 2026-05-07 05:41 | -32.30297 | 151.00099 | 18128 ft | 307 kts | 214° |
| 2026-05-07 05:41 | -32.32255 | 150.99211 | 17440 ft | 303 kts | 214° |
| 2026-05-07 05:41 | -32.34216 | 150.98329 | 16936 ft | 301 kts | 213° |
| 2026-05-07 05:41 | -32.36175 | 150.97443 | 16470 ft | 302 kts | 212° |
| 2026-05-07 05:42 | -32.38141 | 150.96549 | 16041 ft | 304 kts | 212° |
| 2026-05-07 05:42 | -32.40118 | 150.95654 | 15788 ft | 308 kts | 211° |
| 2026-05-07 05:42 | -32.42132 | 150.94744 | 15540 ft | 312 kts | 211° |
| 2026-05-07 05:42 | -32.44182 | 150.93816 | 15376 ft | 318 kts | 210° |
| 2026-05-07 05:43 | -32.46257 | 150.92877 | 15245 ft | 321 kts | 210° |
| 2026-05-07 05:43 | -32.48362 | 150.91946 | 15125 ft | 326 kts | 207° |
| 2026-05-07 05:43 | -32.50669 | 150.91493 | 15034 ft | 351 kts | 191° |
| 2026-05-07 05:43 | -32.53180 | 150.91657 | 14987 ft | 372 kts | 182° |
| 2026-05-07 05:44 | -32.55787 | 150.92170 | 14943 ft | 387 kts | 178° |
| 2026-05-07 05:44 | -32.58422 | 150.92819 | 14888 ft | 386 kts | 177° |
| 2026-05-07 05:44 | -32.61082 | 150.93338 | 14844 ft | 389 kts | 182° |
| 2026-05-07 05:44 | -32.63790 | 150.93704 | 14791 ft | 395 kts | 181° |
| 2026-05-07 05:45 | -32.66541 | 150.94127 | 14789 ft | 403 kts | 178° |
| 2026-05-07 05:45 | -32.69331 | 150.94674 | 14735 ft | 409 kts | 177° |
| 2026-05-07 05:45 | -32.72146 | 150.95221 | 14690 ft | 412 kts | 178° |
| 2026-05-07 05:45 | -32.74987 | 150.95710 | 14639 ft | 414 kts | 179° |
| 2026-05-07 05:46 | -32.77831 | 150.96165 | 14590 ft | 409 kts | 178° |
| 2026-05-07 05:46 | -32.80659 | 150.96670 | 14541 ft | 413 kts | 177° |
| 2026-05-07 05:46 | -32.83509 | 150.97221 | 14489 ft | 417 kts | 177° |
| 2026-05-07 05:46 | -32.86359 | 150.97749 | 14443 ft | 411 kts | 178° |
| 2026-05-07 05:47 | -32.89167 | 150.98221 | 14394 ft | 405 kts | 178° |
| 2026-05-07 05:47 | -32.91010 | 150.98536 | 14386 ft | 402 kts | 177° |
| 2026-05-07 05:47 | -32.93762 | 150.99028 | 14338 ft | 398 kts | 176° |
| 2026-05-07 05:47 | -32.96484 | 150.99526 | 14284 ft | 394 kts | 176° |
| 2026-05-07 05:48 | -32.99197 | 151.00014 | 14233 ft | 395 kts | 176° |
| 2026-05-07 05:48 | -33.01910 | 151.00488 | 14185 ft | 393 kts | 176° |
| 2026-05-07 05:48 | -33.04609 | 151.00962 | 14127 ft | 392 kts | 176° |
| 2026-05-07 05:48 | -33.07269 | 151.01452 | 13864 ft | 381 kts | 175° |
| 2026-05-07 05:49 | -33.09865 | 151.01924 | 13423 ft | 374 kts | 176° |
| 2026-05-07 05:49 | -33.12415 | 151.02373 | 12987 ft | 367 kts | 176° |
| 2026-05-07 05:49 | -33.14925 | 151.02818 | 12560 ft | 363 kts | 176° |
| 2026-05-07 05:49 | -33.17405 | 151.03260 | 12135 ft | 358 kts | 175° |
| 2026-05-07 05:50 | -33.19839 | 151.03690 | 11729 ft | 348 kts | 176° |
| 2026-05-07 05:50 | -33.22198 | 151.04141 | 11320 ft | 340 kts | 175° |
| 2026-05-07 05:50 | -33.24480 | 151.04754 | 10935 ft | 332 kts | 169° |
| 2026-05-07 05:50 | -33.26610 | 151.05701 | 10529 ft | 323 kts | 162° |
| 2026-05-07 05:51 | -33.28600 | 151.06864 | 10142 ft | 314 kts | 160° |
| 2026-05-07 05:51 | -33.30555 | 151.07919 | 9716 ft | 303 kts | 164° |
| 2026-05-07 05:51 | -33.32494 | 151.08788 | 9275 ft | 294 kts | 166° |
| 2026-05-07 05:51 | -33.34366 | 151.09709 | 8858 ft | 288 kts | 162° |
| 2026-05-07 05:52 | -33.36135 | 151.10715 | 8429 ft | 274 kts | 162° |
| 2026-05-07 05:52 | -33.37828 | 151.11613 | 7990 ft | 258 kts | 165° |
| 2026-05-07 05:52 | -33.39460 | 151.12349 | 7589 ft | 245 kts | 166° |
| 2026-05-07 05:52 | -33.40994 | 151.13114 | 7180 ft | 239 kts | 163° |
| 2026-05-07 05:53 | -33.42528 | 151.13922 | 6788 ft | 239 kts | 164° |
| 2026-05-07 05:53 | -33.44047 | 151.14697 | 6395 ft | 236 kts | 164° |
| 2026-05-07 05:53 | -33.45559 | 151.15468 | 5975 ft | 235 kts | 165° |
| 2026-05-07 05:53 | -33.47061 | 151.16220 | 5554 ft | 233 kts | 165° |
| 2026-05-07 05:54 | -33.48554 | 151.16991 | 5118 ft | 236 kts | 164° |
| 2026-05-07 05:54 | -33.50015 | 151.17752 | 5054 ft | 220 kts | 165° |
| 2026-05-07 05:54 | -33.51414 | 151.18460 | 4885 ft | 223 kts | 166° |
| 2026-05-07 05:54 | -33.52850 | 151.19172 | 4496 ft | 225 kts | 166° |
| 2026-05-07 05:55 | -33.54305 | 151.19883 | 4069 ft | 226 kts | 167° |
| 2026-05-07 05:55 | -33.55759 | 151.20579 | 3713 ft | 224 kts | 166° |
| 2026-05-07 05:55 | -33.57210 | 151.21270 | 3406 ft | 225 kts | 167° |
| 2026-05-07 05:55 | -33.58663 | 151.21961 | 3031 ft | 225 kts | 166° |
| 2026-05-07 05:56 | -33.60092 | 151.22647 | 2996 ft | 220 kts | 167° |
| 2026-05-07 05:56 | -33.61485 | 151.23371 | 2985 ft | 216 kts | 164° |
| 2026-05-07 05:56 | -33.62852 | 151.24123 | 2994 ft | 220 kts | 163° |
| 2026-05-07 05:56 | -33.64259 | 151.24913 | 2995 ft | 225 kts | 163° |
| 2026-05-07 05:57 | -33.65644 | 151.25672 | 2988 ft | 212 kts | 165° |
| 2026-05-07 05:57 | -33.66956 | 151.26395 | 2986 ft | 205 kts | 163° |
| 2026-05-07 05:57 | -33.68229 | 151.27109 | 3001 ft | 200 kts | 165° |
| 2026-05-07 05:57 | -33.69507 | 151.27814 | 2995 ft | 204 kts | 165° |
| 2026-05-07 05:58 | -33.70798 | 151.28507 | 2999 ft | 202 kts | 165° |
| 2026-05-07 05:58 | -33.72092 | 151.29172 | 3000 ft | 202 kts | 165° |
| 2026-05-07 05:58 | -33.73403 | 151.29816 | 2991 ft | 207 kts | 169° |
| 2026-05-07 05:58 | -33.74733 | 151.30425 | 2988 ft | 202 kts | 168° |
| 2026-05-07 05:59 | -33.76029 | 151.31050 | 2991 ft | 198 kts | 167° |
| 2026-05-07 05:59 | -33.77286 | 151.31678 | 2989 ft | 193 kts | 167° |
| 2026-05-07 05:59 | -33.78513 | 151.32310 | 2989 ft | 195 kts | 166° |
| 2026-05-07 05:59 | -33.79822 | 151.32974 | 2993 ft | 211 kts | 166° |
| 2026-05-07 06:00 | -33.81155 | 151.33652 | 3000 ft | 200 kts | 167° |
| 2026-05-07 06:00 | -33.82433 | 151.33896 | 3011 ft | 179 kts | 185° |
| 2026-05-07 06:00 | -33.83657 | 151.33928 | 2990 ft | 177 kts | 186° |
| 2026-05-07 06:00 | -33.84854 | 151.34086 | 3131 ft | 172 kts | 184° |
| 2026-05-07 06:01 | -33.86020 | 151.34506 | 3110 ft | 186 kts | 161° |
| 2026-05-07 06:01 | -33.87007 | 151.35653 | 2931 ft | 204 kts | 139° |
| 2026-05-07 06:01 | -33.87930 | 151.36909 | 2972 ft | 195 kts | 146° |
| 2026-05-07 06:01 | -33.88961 | 151.37868 | 2914 ft | 180 kts | 162° |
| 2026-05-07 06:02 | -33.90013 | 151.37982 | 2802 ft | 139 kts | 217° |
| 2026-05-07 06:02 | -33.90313 | 151.37032 | 2604 ft | 126 kts | 265° |
| 2026-05-07 06:02 | -33.90438 | 151.36052 | 2393 ft | 116 kts | 246° |
| 2026-05-07 06:02 | -33.90814 | 151.35194 | 2211 ft | 116 kts | 251° |
| 2026-05-07 06:03 | -33.90895 | 151.34253 | 2161 ft | 110 kts | 266° |
| 2026-05-07 06:03 | -33.90809 | 151.33370 | 1991 ft | 102 kts | 274° |
| 2026-05-07 06:03 | -33.90631 | 151.32583 | 1888 ft | 90 kts | 276° |
| 2026-05-07 06:03 | -33.90647 | 151.31896 | 1771 ft | 79 kts | 254° |
| 2026-05-07 06:04 | -33.90803 | 151.31226 | 1775 ft | 89 kts | 254° |
| 2026-05-07 06:04 | -33.90976 | 151.30522 | 1876 ft | 90 kts | 253° |
| 2026-05-07 06:04 | -33.91154 | 151.29790 | 1864 ft | 91 kts | 254° |
| 2026-05-07 06:04 | -33.91345 | 151.29050 | 1857 ft | 93 kts | 254° |
| 2026-05-07 06:05 | -33.91531 | 151.28301 | 1866 ft | 96 kts | 252° |
| 2026-05-07 06:05 | -33.91747 | 151.27500 | 1844 ft | 102 kts | 251° |
| 2026-05-07 06:05 | -33.91919 | 151.26723 | 1728 ft | 94 kts | 252° |
| 2026-05-07 06:05 | -33.92099 | 151.25966 | 1521 ft | 95 kts | 252° |
| 2026-05-07 06:06 | -33.92272 | 151.25204 | 1295 ft | 94 kts | 251° |
| 2026-05-07 06:06 | -33.92429 | 151.24449 | 1186 ft | 91 kts | 251° |
| 2026-05-07 06:06 | -33.92597 | 151.23724 | 1135 ft | 90 kts | 250° |
| 2026-05-07 06:06 | -33.92792 | 151.22999 | 1028 ft | 91 kts | 250° |
| 2026-05-07 06:07 | -33.92977 | 151.22286 | 848 ft | 89 kts | 253° |
| 2026-05-07 06:07 | -33.93144 | 151.21529 | 638 ft | 99 kts | 251° |
| 2026-05-07 06:07 | -33.93333 | 151.20722 | 462 ft | 99 kts | 251° |
| 2026-05-07 06:07 | -33.93527 | 151.19933 | 270 ft | 98 kts | 249° |
| 2026-05-07 06:08 | -33.93713 | 151.19155 | 155 ft | 94 kts | 256° |
| 2026-05-07 06:08 | -33.93884 | 151.18431 | 31 ft | 83 kts | 254° |
| 2026-05-07 06:08 | -33.94011 | 151.17896 | 22 ft | 50 kts | 256° |
| 2026-05-07 06:08 | -33.94082 | 151.17595 | 21 ft | 32 kts | 254° |
| 2026-05-07 06:09 | -33.94137 | 151.17363 | 21 ft | 23 kts | 254° |
| 2026-05-07 06:09 | -33.94129 | 151.17272 | 23 ft | 8 kts | 324° |
| 2026-05-07 06:09 | -33.94103 | 151.17259 | 22 ft | 0 kts | 346° |
| 2026-05-07 06:09 | -33.94094 | 151.17256 | 22 ft | 2 kts | 345° |
| 2026-05-07 06:10 | -33.94091 | 151.17255 | 22 ft | 0 kts | 345° |
| 2026-05-07 06:10 | -33.94077 | 151.17251 | 22 ft | 4 kts | 349° |
| 2026-05-07 06:10 | -33.94037 | 151.17242 | 22 ft | 7 kts | 349° |
| 2026-05-07 06:11 | -33.93985 | 151.17237 | 23 ft | 7 kts | 22° |
| 2026-05-07 06:11 | -33.93954 | 151.17294 | 24 ft | 10 kts | 75° |
| 2026-05-07 06:11 | -33.93940 | 151.17358 | 22 ft | 13 kts | 74° |
| 2026-05-07 06:11 | -33.93901 | 151.17519 | 21 ft | 12 kts | 73° |
| 2026-05-07 06:12 | -33.93876 | 151.17623 | 22 ft | 14 kts | 74° |
| 2026-05-07 06:12 | -33.93851 | 151.17729 | 24 ft | 14 kts | 73° |
| 2026-05-07 06:12 | -33.93821 | 151.17857 | 23 ft | 17 kts | 74° |
| 2026-05-07 06:12 | -33.93785 | 151.18006 | 24 ft | 20 kts | 73° |
| 2026-05-07 06:13 | -33.93746 | 151.18170 | 23 ft | 17 kts | 74° |
| 2026-05-07 06:13 | -33.93733 | 151.18227 | 23 ft | 7 kts | 75° |
| 2026-05-07 06:13 | -33.93716 | 151.18299 | 23 ft | 11 kts | 74° |
| 2026-05-07 06:13 | -33.93692 | 151.18398 | 25 ft | 14 kts | 73° |
| 2026-05-07 06:14 | -33.93662 | 151.18524 | 23 ft | 17 kts | 74° |
| 2026-05-07 06:14 | -33.93632 | 151.18651 | 23 ft | 17 kts | 74° |
| 2026-05-07 06:14 | -33.93603 | 151.18773 | 23 ft | 13 kts | 73° |
| 2026-05-07 06:14 | -33.93581 | 151.18833 | 23 ft | 7 kts | 37° |
| 2026-05-07 06:15 | -33.93520 | 151.18848 | 23 ft | 10 kts | 11° |
| 2026-05-07 06:15 | -33.93455 | 151.18864 | 23 ft | 8 kts | 14° |
| 2026-05-07 06:15 | -33.93419 | 151.18880 | 23 ft | 2 kts | 28° |
| 2026-05-07 06:15 | -33.93410 | 151.18903 | 23 ft | 5 kts | 79° |
| 2026-05-07 06:16 | -33.93390 | 151.18926 | 26 ft | 5 kts | 353° |
| 2026-05-07 06:16 | -33.93375 | 151.18932 | 26 ft | 0 kts | 63° |
| 2026-05-07 06:16 | -33.93376 | 151.18944 | 25 ft | 5 kts | 96° |
| 2026-05-07 06:16 | -33.93377 | 151.18960 | 23 ft | 1 kts | 99° |
| 2026-05-07 06:17 | -33.93379 | 151.18970 | 23 ft | 0 kts | 100° |
| 2026-05-07 06:17 | -33.93379 | 151.18972 | 23 ft | 0 kts | 99° |